createdAt,value
2023-02-28T00:00:03.619Z,51.38
2023-02-28T00:02:49.064Z,49.30
2023-02-28T00:05:29.433Z,48.33
2023-02-28T00:08:29.786Z,47.97
2023-02-28T00:11:17.587Z,47.20
2023-02-28T00:14:03.894Z,49.80
2023-02-28T00:16:50.460Z,37.85
2023-02-28T00:19:32.363Z,30.30
2023-02-28T00:22:13.102Z,28.55
2023-02-28T00:27:44.326Z,25.88
2023-02-28T00:30:29.558Z,23.85
2023-02-28T00:33:13.025Z,23.00
2023-02-28T00:36:06.942Z,22.02
2023-02-28T00:38:47.203Z,23.63
2023-02-28T00:41:29.587Z,32.70
2023-02-28T00:44:23.577Z,31.92
2023-02-28T00:47:07.671Z,35.83
2023-02-28T00:50:05.740Z,38.92
2023-02-28T00:52:44.201Z,36.92
2023-02-28T00:55:30.973Z,39.38
2023-02-28T00:58:21.579Z,35.17
2023-02-28T01:01:11.831Z,37.15
2023-02-28T01:03:52.994Z,35.17
2023-02-28T01:09:16.943Z,30.33
2023-02-28T01:11:57.747Z,33.97
2023-02-28T01:14:35.705Z,35.97
2023-02-28T01:17:18.947Z,39.22
2023-02-28T01:20:11.328Z,36.63
2023-02-28T01:22:56.679Z,37.92
2023-02-28T01:25:54.409Z,33.78
2023-02-28T01:28:51.878Z,37.33
2023-02-28T01:31:42.012Z,33.72
2023-02-28T01:34:31.775Z,38.35
2023-02-28T01:37:10.379Z,34.45
2023-02-28T01:39:53.662Z,37.97
2023-02-28T01:45:18.105Z,39.50
2023-02-28T01:48:07.895Z,37.40
2023-02-28T01:50:54.698Z,38.65
2023-02-28T01:54:02.404Z,33.38
2023-02-28T01:56:54.193Z,35.95
2023-02-28T01:59:56.369Z,40.25
2023-02-28T02:02:40.696Z,34.75
2023-02-28T02:08:13.507Z,39.80
2023-02-28T02:10:55.186Z,39.45
2023-02-28T02:14:08.805Z,34.10
2023-02-28T02:17:05.771Z,47.30
2023-02-28T02:20:02.801Z,40.38
2023-02-28T02:23:09.867Z,36.22
2023-02-28T02:26:09.888Z,40.00
2023-02-28T02:29:21.101Z,35.30
2023-02-28T02:32:36.066Z,33.17
2023-02-28T02:35:42.172Z,36.53
2023-02-28T02:38:44.642Z,41.75
2023-02-28T02:41:34.970Z,40.55
2023-02-28T02:44:28.020Z,35.58
2023-02-28T02:47:32.116Z,36.05
2023-02-28T02:50:10.723Z,33.65
2023-02-28T02:52:59.854Z,35.45
2023-02-28T02:55:49.169Z,32.97
2023-02-28T02:58:37.449Z,33.47
2023-02-28T03:01:32.363Z,32.42
2023-02-28T03:04:20.375Z,28.48
2023-02-28T03:07:07.440Z,28.25
2023-02-28T03:10:00.190Z,36.60
2023-02-28T03:13:04.457Z,42.13
2023-02-28T03:15:58.420Z,35.20
2023-02-28T03:19:01.473Z,33.90
2023-02-28T03:21:44.770Z,31.90
2023-02-28T03:24:46.034Z,28.23
2023-02-28T03:28:02.864Z,31.10
2023-02-28T03:31:04.491Z,39.35
2023-02-28T03:33:55.774Z,36.95
2023-02-28T03:36:45.102Z,41.40
2023-02-28T03:39:41.624Z,37.00
2023-02-28T03:42:29.840Z,27.83
2023-02-28T03:45:28.326Z,37.15
2023-02-28T03:48:27.706Z,36.30
2023-02-28T03:51:17.532Z,33.67
2023-02-28T03:54:04.357Z,29.75
2023-02-28T03:57:06.001Z,33.22
2023-02-28T04:00:05.395Z,36.03
2023-02-28T04:02:59.181Z,36.13
2023-02-28T04:05:59.426Z,32.88
2023-02-28T04:08:44.436Z,34.33
2023-02-28T04:12:00.146Z,33.05
2023-02-28T04:14:37.837Z,43.30
2023-02-28T04:17:24.699Z,33.95
2023-02-28T04:19:59.665Z,35.90
2023-02-28T04:22:32.204Z,35.03
2023-02-28T04:25:28.190Z,38.65
2023-02-28T04:28:16.739Z,30.20
2023-02-28T04:31:00.970Z,31.92
2023-02-28T04:33:37.554Z,31.55
2023-02-28T04:42:28.353Z,31.35
2023-02-28T04:45:20.281Z,29.67
2023-02-28T04:48:04.074Z,34.25
2023-02-28T04:51:00.794Z,38.10
2023-02-28T04:53:45.327Z,35.15
2023-02-28T04:56:33.041Z,29.73
2023-02-28T04:59:19.288Z,33.00
2023-02-28T05:02:08.449Z,33.10
2023-02-28T05:04:49.209Z,34.97
2023-02-28T05:10:11.435Z,30.65
2023-02-28T05:13:03.426Z,36.95
2023-02-28T05:15:49.279Z,33.78
2023-02-28T05:18:46.898Z,37.50
2023-02-28T05:22:04.945Z,32.50
2023-02-28T05:24:53.189Z,40.22
2023-02-28T05:27:36.410Z,52.00
2023-02-28T05:30:22.798Z,44.35
2023-02-28T05:33:16.985Z,47.28
2023-02-28T05:35:59.439Z,36.00
2023-02-28T05:38:34.286Z,35.70
2023-02-28T05:41:22.201Z,37.00
2023-02-28T05:44:02.437Z,36.72
2023-02-28T05:46:48.477Z,34.40
2023-02-28T05:49:35.848Z,34.17
2023-02-28T05:52:19.051Z,35.95
2023-02-28T05:55:10.649Z,31.30
2023-02-28T05:57:56.994Z,50.92
2023-02-28T06:00:33.670Z,46.70
2023-02-28T06:03:19.118Z,36.33
2023-02-28T06:06:03.927Z,37.35
2023-02-28T06:08:54.690Z,38.00
2023-02-28T06:11:33.410Z,37.88
2023-02-28T06:14:24.893Z,37.33
2023-02-28T06:17:11.062Z,34.58
2023-02-28T06:20:03.498Z,36.55
2023-02-28T06:23:00.441Z,30.27
2023-02-28T06:25:48.745Z,31.00
2023-02-28T06:28:44.569Z,29.55
2023-02-28T06:31:34.907Z,26.95
2023-02-28T06:34:18.255Z,29.42
2023-02-28T06:37:05.806Z,30.38
2023-02-28T06:39:46.522Z,38.67
2023-02-28T06:42:32.527Z,50.35
2023-02-28T06:45:31.723Z,38.47
2023-02-28T06:48:15.202Z,48.53
2023-02-28T06:50:51.128Z,61.17
2023-02-28T06:53:39.463Z,59.08
2023-02-28T06:56:18.941Z,49.30
2023-02-28T06:59:08.858Z,48.88
2023-02-28T07:01:58.491Z,41.97
2023-02-28T07:04:35.240Z,37.28
2023-02-28T07:07:22.243Z,33.38
2023-02-28T07:10:14.775Z,29.00
2023-02-28T07:13:08.516Z,27.17
2023-02-28T07:16:14.794Z,23.25
2023-02-28T07:19:02.399Z,18.95
2023-02-28T07:21:41.429Z,20.23
2023-02-28T07:24:25.385Z,22.52
2023-02-28T07:27:14.469Z,20.98
2023-02-28T07:30:06.223Z,24.85
2023-02-28T07:33:02.116Z,33.63
2023-02-28T07:35:53.937Z,37.03
2023-02-28T07:38:38.556Z,24.08
2023-02-28T07:41:25.805Z,28.88
2023-02-28T07:44:10.039Z,23.80
2023-02-28T07:46:54.429Z,20.23
2023-02-28T07:49:38.429Z,19.30
2023-02-28T07:55:11.765Z,17.10
2023-02-28T07:57:52.780Z,22.63
2023-02-28T08:00:33.920Z,19.17
2023-02-28T08:03:17.512Z,23.02
2023-02-28T08:05:58.093Z,18.00
2023-02-28T08:08:46.600Z,24.10
2023-02-28T08:11:35.846Z,19.23
2023-02-28T08:14:22.691Z,20.63
2023-02-28T08:17:12.577Z,17.02
2023-02-28T08:19:59.903Z,21.50
2023-02-28T08:22:45.993Z,17.67
2023-02-28T08:28:04.132Z,20.23
2023-02-28T08:30:56.384Z,18.00
2023-02-28T08:33:43.075Z,21.17
2023-02-28T08:36:19.480Z,21.73
2023-02-28T08:39:11.462Z,23.40
2023-02-28T08:42:02.083Z,20.25
2023-02-28T08:44:53.243Z,24.25
2023-02-28T08:47:49.624Z,18.42
2023-02-28T08:50:32.850Z,18.13
2023-02-28T08:56:05.454Z,25.48
2023-02-28T08:58:58.724Z,21.17
2023-02-28T09:01:47.771Z,20.38
2023-02-28T09:04:26.000Z,22.40
2023-02-28T09:07:04.445Z,17.02
2023-02-28T09:09:56.931Z,18.23
2023-02-28T09:12:38.621Z,19.95
2023-02-28T09:15:18.978Z,15.23
2023-02-28T09:17:58.990Z,17.95
2023-02-28T09:20:36.660Z,20.10
2023-02-28T09:23:31.369Z,13.25
2023-02-28T09:26:24.627Z,18.42
2023-02-28T09:29:08.002Z,10.97
2023-02-28T09:32:00.435Z,14.02
2023-02-28T09:34:44.113Z,15.77
2023-02-28T09:37:43.803Z,12.88
2023-02-28T09:40:31.751Z,12.68
2023-02-28T09:43:07.124Z,14.38
2023-02-28T09:46:12.891Z,17.17
2023-02-28T09:48:59.084Z,13.25
2023-02-28T09:52:07.009Z,11.93
2023-02-28T09:54:58.774Z,11.13
2023-02-28T09:57:54.843Z,10.45
2023-02-28T10:00:38.047Z,9.25
2023-02-28T10:03:51.329Z,9.77
2023-02-28T10:06:57.495Z,17.92
2023-02-28T10:09:42.791Z,11.98
2023-02-28T10:12:29.009Z,12.98
2023-02-28T10:15:13.754Z,10.27
2023-02-28T10:18:08.359Z,8.23
2023-02-28T10:20:59.814Z,12.80
2023-02-28T10:23:44.855Z,10.52
2023-02-28T10:26:36.766Z,8.88
2023-02-28T10:29:17.529Z,18.70
2023-02-28T10:32:00.260Z,8.73
2023-02-28T10:34:47.365Z,12.93
2023-02-28T10:37:27.425Z,7.95
2023-02-28T10:40:28.495Z,11.55
2023-02-28T10:43:22.408Z,11.73
2023-02-28T10:46:27.047Z,13.32
2023-02-28T10:49:14.272Z,12.23
2023-02-28T10:54:42.375Z,8.88
2023-02-28T10:57:34.409Z,10.25
2023-02-28T11:00:31.022Z,7.97
2023-02-28T11:03:34.760Z,9.40
2023-02-28T11:06:29.802Z,14.02
2023-02-28T11:09:33.849Z,11.43
2023-02-28T11:12:28.688Z,9.50
2023-02-28T11:15:33.441Z,10.10
2023-02-28T11:18:28.352Z,10.98
2023-02-28T11:21:12.617Z,12.18
2023-02-28T11:24:02.417Z,12.45
2023-02-28T11:27:14.281Z,10.27
2023-02-28T11:29:53.688Z,12.02
2023-02-28T11:32:40.213Z,11.32
2023-02-28T11:35:53.425Z,11.10
2023-02-28T11:38:40.102Z,12.52
2023-02-28T11:41:41.142Z,10.07
2023-02-28T11:44:46.970Z,9.57
2023-02-28T11:48:01.767Z,10.50
2023-02-28T11:54:25.347Z,14.43
2023-02-28T11:57:27.974Z,10.15
2023-02-28T12:00:25.183Z,9.50
2023-02-28T12:03:29.757Z,10.93
2023-02-28T12:06:44.647Z,8.98
2023-02-28T12:12:40.013Z,9.52
2023-02-28T12:15:59.419Z,9.73
2023-02-28T12:18:57.534Z,8.55
2023-02-28T12:21:59.917Z,9.68
2023-02-28T12:25:08.249Z,11.15
2023-02-28T12:27:53.189Z,11.80
2023-02-28T12:31:15.100Z,11.63
2023-02-28T12:33:54.425Z,12.25
2023-02-28T12:36:38.312Z,11.32
2023-02-28T12:39:41.706Z,9.55
2023-02-28T12:42:39.182Z,14.65
2023-02-28T12:45:28.387Z,13.43
2023-02-28T12:48:26.985Z,12.02
2023-02-28T12:51:20.601Z,11.32
2023-02-28T12:54:40.393Z,10.32
2023-02-28T12:57:37.367Z,14.80
2023-02-28T13:00:33.391Z,10.25
2023-02-28T13:03:38.699Z,8.75
2023-02-28T13:06:45.479Z,10.88
2023-02-28T13:09:44.563Z,8.90
2023-02-28T13:12:41.790Z,12.65
2023-02-28T13:15:36.399Z,9.63
2023-02-28T13:18:54.418Z,10.85
2023-02-28T13:21:45.629Z,10.73
2023-02-28T13:24:52.381Z,8.30
2023-02-28T13:27:50.358Z,9.57
2023-02-28T13:31:05.023Z,7.90
2023-02-28T13:34:08.414Z,10.30
2023-02-28T13:36:57.338Z,9.13
2023-02-28T13:40:24.501Z,8.98
2023-02-28T13:43:16.702Z,10.98
2023-02-28T13:46:20.763Z,10.32
2023-02-28T13:49:19.600Z,12.73
2023-02-28T13:52:20.414Z,9.68
2023-02-28T13:55:25.997Z,11.45
2023-02-28T13:58:26.029Z,10.60
2023-02-28T14:01:56.544Z,14.75
2023-02-28T14:05:31.010Z,11.15
2023-02-28T14:08:30.209Z,10.85
2023-02-28T14:11:35.156Z,9.85
2023-02-28T14:14:33.620Z,16.15
2023-02-28T14:17:20.890Z,10.88
2023-02-28T14:20:01.552Z,13.63
2023-02-28T14:22:40.589Z,13.20
2023-02-28T14:25:38.031Z,19.67
2023-02-28T14:28:28.992Z,12.23
2023-02-28T14:31:30.551Z,13.25
2023-02-28T14:34:50.476Z,15.38
2023-02-28T14:37:28.543Z,10.80
2023-02-28T14:40:10.887Z,13.43
2023-02-28T14:43:04.258Z,11.52
2023-02-28T14:45:59.598Z,13.55
2023-02-28T14:48:45.397Z,11.82
2023-02-28T14:51:33.258Z,11.63
2023-02-28T14:54:27.553Z,14.38
2023-02-28T15:00:08.430Z,15.77
2023-02-28T15:02:50.287Z,20.17
2023-02-28T15:05:40.849Z,16.60
2023-02-28T15:08:22.615Z,16.35
2023-02-28T15:11:22.828Z,17.25
2023-02-28T15:14:33.239Z,19.23
2023-02-28T15:17:41.343Z,17.38
2023-02-28T15:20:23.620Z,18.40
2023-02-28T15:23:06.189Z,18.80
2023-02-28T15:25:54.438Z,19.40
2023-02-28T15:28:35.029Z,20.15
2023-02-28T15:31:39.038Z,20.42
2023-02-28T15:34:51.132Z,18.42
2023-02-28T15:37:55.442Z,24.35
2023-02-28T15:41:03.454Z,23.77
2023-02-28T15:43:49.397Z,23.85
2023-02-28T15:46:34.731Z,25.70
2023-02-28T15:49:25.081Z,21.45
2023-02-28T15:52:15.516Z,20.98
2023-02-28T15:55:13.692Z,23.20
2023-02-28T15:57:59.782Z,20.55
2023-02-28T16:00:50.586Z,21.35
2023-02-28T16:03:52.002Z,28.33
2023-02-28T16:06:52.372Z,27.73
2023-02-28T16:09:36.996Z,32.10
2023-02-28T16:12:28.223Z,29.73
2023-02-28T16:15:27.150Z,25.92
2023-02-28T16:18:09.406Z,30.80
2023-02-28T16:21:01.592Z,26.35
2023-02-28T16:23:47.405Z,33.08
2023-02-28T16:26:31.355Z,27.83
2023-02-28T16:32:30.718Z,30.83
2023-02-28T16:35:25.227Z,25.38
2023-02-28T16:38:03.382Z,28.40
2023-02-28T16:40:44.908Z,30.20
2023-02-28T16:43:40.191Z,33.20
2023-02-28T16:46:16.319Z,37.70
2023-02-28T16:49:05.875Z,28.73
2023-02-28T16:51:44.134Z,27.73
2023-02-28T16:54:29.513Z,33.45
2023-02-28T16:57:17.509Z,35.95
2023-02-28T17:00:09.061Z,37.10
2023-02-28T17:03:08.262Z,40.92
2023-02-28T17:05:56.072Z,40.92
2023-02-28T17:08:40.044Z,40.17
2023-02-28T17:11:34.678Z,31.17
2023-02-28T17:14:13.377Z,38.60
2023-02-28T17:17:00.614Z,39.00
2023-02-28T17:22:46.705Z,34.95
2023-02-28T17:25:34.457Z,34.90
2023-02-28T17:28:17.945Z,34.83
2023-02-28T17:31:17.642Z,34.78
2023-02-28T17:34:03.979Z,38.72
2023-02-28T17:36:50.109Z,39.88
2023-02-28T17:39:37.422Z,39.40
2023-02-28T17:42:29.059Z,37.78
2023-02-28T17:45:13.195Z,37.28
2023-02-28T17:48:10.080Z,39.50
2023-02-28T17:51:08.280Z,46.35
2023-02-28T17:54:08.515Z,48.83
2023-02-28T17:57:02.250Z,45.08
2023-02-28T17:59:48.384Z,42.90
2023-02-28T18:02:43.498Z,52.58
2023-02-28T18:05:31.228Z,40.50
2023-02-28T18:11:21.143Z,41.78
2023-02-28T18:14:03.357Z,46.55
2023-02-28T18:16:54.504Z,44.03
2023-02-28T18:19:46.161Z,47.15
2023-02-28T18:22:33.247Z,51.35
2023-02-28T18:25:26.343Z,48.35
2023-02-28T18:28:15.459Z,47.58
2023-02-28T18:31:14.965Z,47.85
2023-02-28T18:34:14.706Z,47.92
2023-02-28T18:37:02.843Z,54.00
2023-02-28T18:39:53.050Z,60.17
2023-02-28T18:42:39.311Z,65.32
2023-02-28T18:45:29.041Z,47.80
2023-02-28T18:48:10.990Z,61.08
2023-02-28T18:50:47.354Z,51.45
2023-02-28T18:53:32.261Z,55.65
2023-02-28T18:56:16.072Z,50.78
2023-02-28T19:01:46.774Z,57.95
2023-02-28T19:04:33.745Z,60.53
2023-02-28T19:07:20.620Z,51.83
2023-02-28T19:10:03.083Z,47.47
2023-02-28T19:13:06.444Z,56.17
2023-02-28T19:15:57.673Z,57.13
2023-02-28T19:18:46.587Z,46.17
2023-02-28T19:21:35.499Z,47.50
2023-02-28T19:24:26.223Z,55.95
2023-02-28T19:27:10.455Z,54.20
2023-02-28T19:29:59.388Z,44.47
2023-02-28T19:33:05.129Z,49.72
2023-02-28T19:36:00.105Z,48.97
2023-02-28T19:38:54.337Z,44.53
2023-02-28T19:44:29.219Z,53.65
2023-02-28T19:47:24.471Z,59.63
2023-02-28T19:50:05.683Z,69.53
2023-02-28T19:55:40.119Z,61.65
2023-02-28T19:58:23.104Z,56.17
2023-02-28T20:01:16.965Z,59.85
2023-02-28T20:04:12.043Z,62.17
2023-02-28T20:06:59.020Z,58.58
2023-02-28T20:09:50.892Z,52.10
2023-02-28T20:12:42.853Z,52.33
2023-02-28T20:15:27.175Z,49.38
2023-02-28T20:18:23.427Z,46.78
2023-02-28T20:21:10.025Z,43.33
2023-02-28T20:23:56.209Z,43.13
2023-02-28T20:26:45.319Z,46.40
2023-02-28T20:29:34.579Z,40.03
2023-02-28T20:32:39.846Z,41.78
2023-02-28T20:35:17.178Z,39.28
2023-02-28T20:38:09.364Z,37.85
2023-02-28T20:41:10.433Z,35.30
2023-02-28T20:43:58.578Z,39.00
2023-02-28T20:46:46.420Z,32.65
2023-02-28T20:49:44.567Z,32.42
2023-02-28T20:52:27.964Z,36.25
2023-02-28T20:55:18.137Z,35.33
2023-02-28T20:58:11.614Z,35.40
2023-02-28T21:01:07.809Z,36.65
2023-02-28T21:04:03.285Z,30.27
2023-02-28T21:06:57.710Z,35.08
2023-02-28T21:09:45.386Z,36.30
2023-02-28T21:12:19.354Z,37.10
2023-02-28T21:15:10.237Z,35.75
2023-02-28T21:17:50.877Z,35.53
2023-02-28T21:20:36.539Z,32.25
2023-02-28T21:23:29.534Z,36.47
2023-02-28T21:26:07.758Z,36.53
2023-02-28T21:28:49.412Z,32.80
2023-02-28T21:31:44.095Z,28.95
2023-02-28T21:34:34.122Z,36.38
2023-02-28T21:37:12.012Z,31.75
2023-02-28T21:39:56.829Z,36.05
2023-02-28T21:42:44.352Z,38.63
2023-02-28T21:45:25.005Z,40.58
2023-02-28T21:48:04.149Z,59.65
2023-02-28T21:51:00.173Z,49.78
2023-02-28T21:53:44.363Z,59.33
2023-02-28T21:56:37.214Z,69.75
2023-02-28T21:59:19.672Z,65.85
2023-02-28T22:02:03.460Z,59.78
2023-02-28T22:07:40.489Z,59.45
2023-02-28T22:10:31.294Z,50.58
2023-02-28T22:13:24.353Z,40.38
2023-02-28T22:16:19.649Z,44.60
2023-02-28T22:19:07.667Z,39.08
2023-02-28T22:22:06.583Z,44.80
2023-02-28T22:24:57.365Z,41.03
2023-02-28T22:27:44.408Z,39.30
2023-02-28T22:30:34.503Z,44.65
2023-02-28T22:33:21.522Z,41.10
2023-02-28T22:36:11.201Z,49.38
2023-02-28T22:39:02.267Z,62.78
2023-02-28T22:41:41.385Z,102.03
2023-02-28T22:44:40.850Z,79.47
2023-02-28T22:47:28.720Z,69.25
2023-02-28T22:53:06.651Z,58.75
2023-02-28T22:56:00.334Z,61.65
2023-02-28T22:58:58.758Z,56.78
2023-02-28T23:01:45.059Z,54.67
2023-02-28T23:04:36.165Z,46.88
2023-02-28T23:07:21.330Z,52.40
2023-02-28T23:10:16.697Z,46.40
2023-02-28T23:12:57.221Z,50.78
2023-02-28T23:15:42.807Z,45.72
2023-02-28T23:18:25.337Z,45.78
2023-02-28T23:21:21.141Z,52.75
2023-02-28T23:24:06.984Z,47.53
2023-02-28T23:26:55.583Z,48.10
2023-02-28T23:29:55.302Z,51.88
2023-02-28T23:32:48.122Z,46.22
2023-02-28T23:35:36.030Z,51.22
2023-02-28T23:38:19.993Z,41.80
2023-02-28T23:41:19.304Z,42.22
2023-02-28T23:44:07.785Z,40.92
2023-02-28T23:46:58.327Z,38.70
2023-02-28T23:50:02.402Z,35.53
2023-02-28T23:52:35.263Z,39.55
2023-02-28T23:55:18.722Z,33.45
2023-02-28T23:58:12.847Z,29.75
